createdAt,value
2022-09-09T00:00:20.696Z,11.00
2022-09-09T00:01:20.535Z,11.01
2022-09-09T00:02:20.605Z,11.00
2022-09-09T00:03:20.913Z,11.00
2022-09-09T00:04:20.780Z,11.00
2022-09-09T00:05:20.550Z,10.97
2022-09-09T00:06:20.429Z,10.95
2022-09-09T00:07:20.530Z,10.95
2022-09-09T00:08:20.399Z,10.92
2022-09-09T00:09:20.529Z,10.90
2022-09-09T00:10:20.429Z,10.90
2022-09-09T00:11:20.351Z,10.89
2022-09-09T00:12:20.379Z,10.89
2022-09-09T00:13:20.528Z,10.87
2022-09-09T00:14:20.419Z,10.87
2022-09-09T00:15:20.341Z,10.87
2022-09-09T00:16:20.469Z,10.87
2022-09-09T00:17:20.546Z,10.87
2022-09-09T00:18:20.266Z,10.87
2022-09-09T00:19:20.237Z,10.86
2022-09-09T00:20:20.396Z,10.84
2022-09-09T00:21:20.555Z,10.84
2022-09-09T00:22:20.397Z,10.84
2022-09-09T00:23:20.225Z,10.84
2022-09-09T00:24:20.165Z,10.83
2022-09-09T00:25:20.215Z,10.83
2022-09-09T00:26:20.375Z,10.82
2022-09-09T00:27:20.285Z,10.82
2022-09-09T00:28:20.114Z,10.79
2022-09-09T00:29:20.235Z,10.77
2022-09-09T00:30:20.085Z,10.77
2022-09-09T00:31:20.264Z,10.80
2022-09-09T00:32:20.086Z,10.82
2022-09-09T00:33:20.231Z,10.79
2022-09-09T00:34:20.070Z,10.79
2022-09-09T00:35:20.023Z,10.77
2022-09-09T00:36:20.049Z,10.79
2022-09-09T00:37:19.990Z,10.79
2022-09-09T00:38:20.071Z,10.77
2022-09-09T00:39:20.229Z,10.80
2022-09-09T00:40:20.049Z,10.80
2022-09-09T00:41:19.939Z,10.79
2022-09-09T00:42:20.069Z,10.79
2022-09-09T00:43:19.909Z,10.79
2022-09-09T00:44:19.900Z,10.80
2022-09-09T00:45:19.975Z,10.79
2022-09-09T00:46:19.954Z,10.79
2022-09-09T00:47:19.917Z,10.76
2022-09-09T00:48:19.894Z,10.76
2022-09-09T00:49:19.914Z,10.75
2022-09-09T00:50:19.835Z,10.79
2022-09-09T00:51:19.925Z,10.89
2022-09-09T00:52:20.075Z,10.90
2022-09-09T00:53:19.956Z,10.94
2022-09-09T00:54:20.055Z,10.94
2022-09-09T00:55:19.765Z,10.95
2022-09-09T00:56:19.774Z,10.92
2022-09-09T00:57:19.774Z,10.89
2022-09-09T00:58:19.789Z,10.86
2022-09-09T00:59:19.900Z,10.83
2022-09-09T01:00:19.730Z,10.80
2022-09-09T01:01:19.773Z,10.79
2022-09-09T01:02:19.896Z,10.79
2022-09-09T01:03:19.900Z,10.77
2022-09-09T01:04:19.800Z,10.75
2022-09-09T01:05:19.941Z,10.72
2022-09-09T01:06:19.801Z,10.75
2022-09-09T01:07:19.619Z,10.72
2022-09-09T01:08:19.640Z,10.69
2022-09-09T01:09:19.569Z,10.71
2022-09-09T01:10:19.730Z,10.69
2022-09-09T01:11:19.574Z,10.69
2022-09-09T01:12:19.744Z,10.69
2022-09-09T01:13:19.585Z,10.68
2022-09-09T01:14:19.565Z,10.67
2022-09-09T01:15:19.594Z,10.67
2022-09-09T01:16:19.527Z,10.67
2022-09-09T01:17:19.617Z,10.67
2022-09-09T01:18:19.445Z,10.64
2022-09-09T01:19:19.649Z,10.62
2022-09-09T01:20:19.424Z,10.62
2022-09-09T01:21:19.577Z,10.62
2022-09-09T01:22:19.425Z,10.61
2022-09-09T01:23:19.574Z,10.62
2022-09-09T01:24:19.424Z,10.61
2022-09-09T01:25:19.659Z,10.59
2022-09-09T01:26:19.418Z,10.59
2022-09-09T01:27:19.322Z,10.61
2022-09-09T01:28:19.420Z,10.61
2022-09-09T01:29:19.330Z,10.59
2022-09-09T01:30:19.419Z,10.57
2022-09-09T01:31:19.349Z,10.58
2022-09-09T01:32:19.409Z,10.57
2022-09-09T01:33:19.270Z,10.55
2022-09-09T01:34:19.219Z,10.55
2022-09-09T01:35:19.260Z,10.53
2022-09-09T01:36:19.194Z,10.53
2022-09-09T01:37:19.321Z,10.53
2022-09-09T01:38:19.174Z,10.51
2022-09-09T01:39:19.274Z,10.51
2022-09-09T01:40:19.435Z,10.49
2022-09-09T01:41:19.255Z,10.48
2022-09-09T01:42:19.114Z,10.49
2022-09-09T01:43:19.335Z,10.48
2022-09-09T01:44:19.094Z,10.48
2022-09-09T01:45:19.255Z,10.46
2022-09-09T01:46:19.153Z,10.45
2022-09-09T01:47:19.034Z,10.43
2022-09-09T01:48:19.114Z,10.45
2022-09-09T01:49:19.323Z,10.43
2022-09-09T01:50:19.115Z,10.45
2022-09-09T01:51:18.985Z,10.45
2022-09-09T01:52:19.120Z,10.46
2022-09-09T01:53:19.270Z,10.45
2022-09-09T01:54:18.949Z,10.45
2022-09-09T01:55:19.014Z,10.46
2022-09-09T01:56:18.930Z,10.45
2022-09-09T01:57:18.939Z,10.43
2022-09-09T01:58:18.888Z,10.45
2022-09-09T01:59:18.929Z,10.43
2022-09-09T02:00:19.089Z,10.43
2022-09-09T02:01:19.083Z,10.43
2022-09-09T02:02:18.894Z,10.43
2022-09-09T02:03:18.929Z,10.43
2022-09-09T02:04:19.111Z,10.43
2022-09-09T02:05:18.940Z,10.43
2022-09-09T02:06:18.784Z,10.43
2022-09-09T02:07:19.014Z,10.43
2022-09-09T02:08:18.784Z,10.43
2022-09-09T02:09:18.755Z,10.45
2022-09-09T02:10:18.857Z,10.43
2022-09-09T02:11:18.934Z,10.43
2022-09-09T02:12:18.844Z,10.42
2022-09-09T02:13:18.684Z,10.42
2022-09-09T02:14:18.887Z,10.42
2022-09-09T02:15:18.724Z,10.41
2022-09-09T02:16:18.803Z,10.39
2022-09-09T02:17:18.636Z,10.38
2022-09-09T02:18:18.835Z,10.39
2022-09-09T02:19:18.620Z,10.38
2022-09-09T02:20:18.610Z,10.36
2022-09-09T02:21:18.630Z,10.34
2022-09-09T02:22:18.783Z,10.34
2022-09-09T02:23:18.700Z,10.33
2022-09-09T02:24:18.619Z,10.33
2022-09-09T02:25:18.629Z,10.31
2022-09-09T02:26:18.779Z,10.30
2022-09-09T02:27:18.629Z,10.28
2022-09-09T02:28:18.480Z,10.30
2022-09-09T02:29:18.620Z,10.30
2022-09-09T02:30:18.540Z,10.30
2022-09-09T02:31:18.629Z,10.30
2022-09-09T02:32:18.449Z,10.28
2022-09-09T02:33:18.634Z,10.28
2022-09-09T02:34:18.480Z,10.30
2022-09-09T02:35:18.454Z,10.30
2022-09-09T02:36:18.525Z,10.27
2022-09-09T02:37:18.375Z,10.25
2022-09-09T02:38:18.474Z,10.23
2022-09-09T02:39:18.334Z,10.21
2022-09-09T02:40:18.545Z,10.20
2022-09-09T02:41:18.305Z,10.17
2022-09-09T02:42:18.354Z,10.18
2022-09-09T02:43:18.295Z,10.17
2022-09-09T02:44:18.474Z,10.17
2022-09-09T02:45:18.285Z,10.13
2022-09-09T02:46:18.505Z,10.13
2022-09-09T02:47:18.310Z,10.15
2022-09-09T02:48:18.800Z,10.13
2022-09-09T02:49:18.290Z,10.13
2022-09-09T02:50:18.198Z,10.17
2022-09-09T02:51:18.311Z,10.15
2022-09-09T02:52:18.469Z,10.15
2022-09-09T02:53:18.370Z,10.13
2022-09-09T02:54:18.160Z,10.13
2022-09-09T02:55:18.309Z,10.13
2022-09-09T02:56:18.150Z,10.10
2022-09-09T02:57:18.309Z,10.10
2022-09-09T02:58:18.150Z,10.10
2022-09-09T02:59:18.120Z,10.12
2022-09-09T03:00:18.130Z,10.10
2022-09-09T03:01:18.394Z,10.09
2022-09-09T03:02:18.160Z,10.07
2022-09-09T03:03:18.317Z,10.06
2022-09-09T03:04:18.135Z,10.07
2022-09-09T03:05:18.044Z,10.06
2022-09-09T03:06:17.975Z,10.06
2022-09-09T03:07:17.975Z,10.07
2022-09-09T03:08:17.944Z,10.05
2022-09-09T03:09:17.974Z,10.05
2022-09-09T03:10:18.474Z,10.05
2022-09-09T03:11:17.995Z,10.05
2022-09-09T03:12:17.875Z,10.03
2022-09-09T03:13:17.975Z,10.03
2022-09-09T03:14:18.125Z,10.05
2022-09-09T03:15:17.980Z,10.05
2022-09-09T03:16:17.979Z,10.05
2022-09-09T03:17:17.887Z,10.05
2022-09-09T03:18:17.809Z,10.05
2022-09-09T03:19:17.790Z,10.05
2022-09-09T03:20:17.829Z,10.03
2022-09-09T03:21:17.790Z,10.05
2022-09-09T03:22:17.899Z,10.03
2022-09-09T03:23:17.751Z,10.00
2022-09-09T03:24:17.839Z,10.02
2022-09-09T03:25:17.989Z,10.00
2022-09-09T03:26:17.810Z,9.99
2022-09-09T03:27:17.689Z,9.97
2022-09-09T03:28:17.829Z,9.99
2022-09-09T03:29:17.664Z,9.95
2022-09-09T03:30:17.834Z,9.97
2022-09-09T03:31:17.717Z,9.95
2022-09-09T03:32:17.805Z,9.94
2022-09-09T03:33:17.665Z,9.95
2022-09-09T03:34:17.885Z,9.97
2022-09-09T03:35:17.674Z,9.95
2022-09-09T03:36:17.814Z,9.97
2022-09-09T03:37:17.675Z,10.00
2022-09-09T03:38:17.534Z,10.02
2022-09-09T03:39:17.646Z,10.02
2022-09-09T03:40:17.621Z,10.02
2022-09-09T03:41:17.484Z,10.03
2022-09-09T03:42:17.518Z,10.05
2022-09-09T03:43:17.659Z,10.05
2022-09-09T03:44:17.508Z,10.05
2022-09-09T03:45:17.671Z,10.06
2022-09-09T03:46:17.647Z,10.06
2022-09-09T03:47:17.650Z,10.07
2022-09-09T03:48:17.500Z,10.06
2022-09-09T03:49:17.651Z,10.07
2022-09-09T03:50:17.490Z,10.06
2022-09-09T03:51:17.361Z,10.07
2022-09-09T03:52:21.652Z,10.07
2022-09-09T03:53:17.349Z,10.07
2022-09-09T03:54:17.500Z,10.06
2022-09-09T03:55:17.320Z,10.05
2022-09-09T03:56:17.488Z,10.03
2022-09-09T03:57:17.416Z,10.03
2022-09-09T03:58:17.504Z,10.03
2022-09-09T03:59:17.335Z,9.99
2022-09-09T04:00:17.508Z,9.97
2022-09-09T04:01:17.410Z,9.97
2022-09-09T04:02:17.316Z,9.97
2022-09-09T04:03:17.405Z,9.95
2022-09-09T04:04:17.195Z,9.97
2022-09-09T04:05:17.175Z,9.97
2022-09-09T04:06:17.199Z,9.99
2022-09-09T04:07:17.144Z,9.97
2022-09-09T04:08:17.155Z,9.95
2022-09-09T04:09:17.175Z,9.97
2022-09-09T04:10:17.178Z,9.97
2022-09-09T04:11:17.352Z,9.97
2022-09-09T04:12:17.180Z,9.94
2022-09-09T04:13:17.059Z,9.94
2022-09-09T04:14:17.179Z,9.94
2022-09-09T04:15:17.131Z,9.92
2022-09-09T04:16:17.237Z,9.91
2022-09-09T04:17:17.010Z,9.91
2022-09-09T04:18:19.904Z,9.90
2022-09-09T04:19:17.010Z,9.90
2022-09-09T04:20:16.976Z,9.90
2022-09-09T04:21:17.084Z,9.90
2022-09-09T04:22:17.182Z,9.88
2022-09-09T04:23:17.010Z,10.00
2022-09-09T04:24:17.170Z,10.02
2022-09-09T04:25:17.025Z,10.02
2022-09-09T04:26:16.894Z,10.03
2022-09-09T04:27:16.953Z,10.05
2022-09-09T04:28:16.863Z,10.05
2022-09-09T04:29:16.855Z,10.05
2022-09-09T04:30:16.854Z,10.05
2022-09-09T04:31:17.088Z,10.05
2022-09-09T04:32:16.857Z,10.07
2022-09-09T04:33:16.864Z,10.07
2022-09-09T04:34:16.855Z,10.09
2022-09-09T04:35:17.015Z,10.10
2022-09-09T04:36:16.855Z,10.12
2022-09-09T04:37:16.735Z,10.10
2022-09-09T04:38:16.909Z,10.12
2022-09-09T04:39:16.714Z,10.12
2022-09-09T04:40:16.783Z,10.15
2022-09-09T04:41:16.840Z,10.20
2022-09-09T04:42:16.860Z,10.24
2022-09-09T04:43:16.700Z,10.28
2022-09-09T04:44:16.870Z,10.34
2022-09-09T04:45:16.691Z,10.38
2022-09-09T04:46:16.930Z,10.43
2022-09-09T04:47:16.702Z,10.48
2022-09-09T04:48:16.599Z,10.53
2022-09-09T04:49:16.710Z,10.61
2022-09-09T04:50:16.641Z,10.62
2022-09-09T04:51:16.689Z,10.68
2022-09-09T04:52:16.540Z,10.76
2022-09-09T04:53:16.700Z,10.80
2022-09-09T04:54:16.547Z,10.86
2022-09-09T04:55:16.704Z,10.90
2022-09-09T04:56:16.634Z,10.98
2022-09-09T04:57:18.811Z,11.02
2022-09-09T04:58:16.554Z,11.07
2022-09-09T04:59:16.705Z,11.13
2022-09-09T05:00:16.535Z,11.20
2022-09-09T05:01:16.819Z,11.26
2022-09-09T05:02:16.630Z,11.33
2022-09-09T05:03:16.395Z,11.40
2022-09-09T05:04:16.374Z,11.45
2022-09-09T05:05:16.375Z,11.52
2022-09-09T05:06:16.345Z,11.56
2022-09-09T05:07:16.444Z,11.65
2022-09-09T05:08:16.540Z,11.71
2022-09-09T05:09:16.383Z,11.80
2022-09-09T05:10:16.300Z,11.89
2022-09-09T05:11:16.400Z,11.99
2022-09-09T05:12:16.562Z,12.11
2022-09-09T05:13:16.460Z,12.23
2022-09-09T05:14:16.269Z,12.32
2022-09-09T05:15:16.370Z,12.43
2022-09-09T05:16:16.295Z,12.45
2022-09-09T05:17:16.188Z,12.57
2022-09-09T05:18:16.280Z,12.65
2022-09-09T05:19:16.373Z,12.76
2022-09-09T05:20:17.573Z,12.86
2022-09-09T05:21:16.175Z,12.91
2022-09-09T05:22:16.215Z,12.93
2022-09-09T05:23:16.386Z,13.02
2022-09-09T05:24:16.285Z,13.08
2022-09-09T05:25:16.094Z,13.09
2022-09-09T05:26:17.758Z,13.17
2022-09-09T05:27:16.064Z,13.23
2022-09-09T05:28:16.046Z,13.27
2022-09-09T05:29:16.125Z,13.40
2022-09-09T05:30:16.215Z,13.43
2022-09-09T05:31:16.111Z,13.54
2022-09-09T05:32:15.994Z,13.65
2022-09-09T05:33:16.056Z,13.70
2022-09-09T05:34:15.956Z,13.91
2022-09-09T05:35:16.150Z,13.91
2022-09-09T05:36:15.950Z,13.73
2022-09-09T05:37:16.060Z,13.61
2022-09-09T05:38:15.910Z,13.54
2022-09-09T05:39:15.911Z,13.47
2022-09-09T05:40:15.969Z,13.45
2022-09-09T05:41:15.929Z,13.42
2022-09-09T05:42:15.900Z,13.39
2022-09-09T05:43:15.842Z,13.36
2022-09-09T05:44:15.934Z,13.36
2022-09-09T05:45:15.821Z,13.31
2022-09-09T05:46:15.950Z,13.27
2022-09-09T05:47:15.839Z,13.23
2022-09-09T05:48:15.925Z,13.23
2022-09-09T05:49:16.064Z,13.21
2022-09-09T05:50:15.906Z,13.20
2022-09-09T05:51:15.747Z,13.21
2022-09-09T05:52:15.724Z,13.20
2022-09-09T05:53:15.806Z,13.16
2022-09-09T05:54:15.916Z,13.13
2022-09-09T05:55:15.748Z,13.17
2022-09-09T05:56:15.895Z,13.19
2022-09-09T05:57:15.736Z,13.20
2022-09-09T05:58:15.646Z,13.26
2022-09-09T05:59:15.804Z,13.30
2022-09-09T06:00:15.895Z,13.33
2022-09-09T06:01:15.729Z,13.40
2022-09-09T06:02:15.706Z,13.47
2022-09-09T06:03:15.712Z,13.52
2022-09-09T06:04:15.591Z,13.57
2022-09-09T06:05:15.631Z,13.54
2022-09-09T06:06:15.580Z,13.54
2022-09-09T06:07:15.714Z,13.54
2022-09-09T06:08:15.579Z,13.58
2022-09-09T06:09:15.729Z,13.65
2022-09-09T06:10:15.570Z,13.68
2022-09-09T06:11:15.800Z,13.73
2022-09-09T06:12:15.571Z,13.79
2022-09-09T06:13:15.460Z,13.79
2022-09-09T06:14:15.585Z,13.80
2022-09-09T06:15:15.414Z,13.85
2022-09-09T06:16:15.482Z,13.86
2022-09-09T06:17:15.495Z,13.89
2022-09-09T06:18:15.566Z,13.86
2022-09-09T06:19:15.423Z,13.86
2022-09-09T06:20:15.347Z,13.89
2022-09-09T06:21:15.415Z,13.97
2022-09-09T06:22:15.566Z,13.93
2022-09-09T06:23:15.486Z,13.87
2022-09-09T06:24:15.285Z,13.86
2022-09-09T06:25:15.415Z,13.85
2022-09-09T06:26:15.255Z,13.83
2022-09-09T06:27:15.270Z,13.86
2022-09-09T06:28:15.260Z,13.94
2022-09-09T06:29:15.489Z,14.00
2022-09-09T06:30:15.322Z,14.04
2022-09-09T06:31:15.261Z,14.11
2022-09-09T06:32:15.250Z,14.11
2022-09-09T06:33:15.421Z,14.13
2022-09-09T06:34:15.249Z,14.15
2022-09-09T06:35:15.201Z,14.18
2022-09-09T06:36:15.250Z,14.18
2022-09-09T06:37:15.126Z,14.19
2022-09-09T06:38:15.250Z,14.26
2022-09-09T06:39:15.329Z,14.30
2022-09-09T06:40:15.342Z,14.36
2022-09-09T06:41:15.175Z,14.38
2022-09-09T06:42:15.065Z,14.38
2022-09-09T06:43:15.095Z,14.34
2022-09-09T06:44:15.256Z,14.40
2022-09-09T06:45:15.006Z,14.44
2022-09-09T06:46:15.014Z,14.49
2022-09-09T06:47:15.065Z,14.51
2022-09-09T06:48:14.965Z,14.45
2022-09-09T06:49:15.095Z,14.48
2022-09-09T06:50:14.926Z,14.48
2022-09-09T06:51:15.096Z,14.48
2022-09-09T06:52:14.924Z,14.52
2022-09-09T06:53:14.961Z,14.58
2022-09-09T06:54:14.939Z,14.56
2022-09-09T06:55:14.872Z,14.62
2022-09-09T06:56:17.968Z,14.68
2022-09-09T06:57:35.855Z,14.70
2022-09-09T06:58:14.930Z,14.77
2022-09-09T06:59:15.161Z,14.74
2022-09-09T07:00:14.937Z,14.78
2022-09-09T07:01:14.872Z,14.85
2022-09-09T07:02:14.839Z,14.86
2022-09-09T07:03:14.775Z,14.86
2022-09-09T07:04:14.930Z,14.81
2022-09-09T07:05:14.839Z,14.78
2022-09-09T07:06:14.815Z,14.74
2022-09-09T07:07:14.795Z,14.79
2022-09-09T07:08:14.957Z,14.79
2022-09-09T07:09:14.785Z,14.81
2022-09-09T07:10:14.680Z,14.86
2022-09-09T07:11:14.886Z,14.87
2022-09-09T07:12:14.635Z,14.89
2022-09-09T07:13:14.643Z,14.93
2022-09-09T07:14:14.626Z,14.96
2022-09-09T07:15:14.777Z,15.00
2022-09-09T07:16:14.668Z,15.07
2022-09-09T07:17:14.624Z,15.08
2022-09-09T07:18:14.558Z,15.08
2022-09-09T07:19:14.779Z,15.08
2022-09-09T07:20:14.610Z,15.11
2022-09-09T07:21:14.519Z,15.11
2022-09-09T07:22:14.620Z,15.19
2022-09-09T07:23:14.570Z,15.25
2022-09-09T07:24:14.469Z,15.25
2022-09-09T07:25:14.460Z,15.25
2022-09-09T07:26:14.614Z,15.26
2022-09-09T07:27:14.450Z,15.29
2022-09-09T07:28:14.410Z,15.32
2022-09-09T07:29:19.854Z,15.33
2022-09-09T07:30:20.231Z,15.33
2022-09-09T07:31:14.540Z,15.36
2022-09-09T07:32:14.354Z,15.39
2022-09-09T07:33:14.466Z,15.45
2022-09-09T07:34:14.345Z,15.45
2022-09-09T07:35:14.535Z,15.43
2022-09-09T07:36:14.305Z,15.33
2022-09-09T07:37:14.286Z,15.36
2022-09-09T07:38:14.315Z,15.39
2022-09-09T07:39:14.458Z,15.37
2022-09-09T07:40:14.322Z,15.35
2022-09-09T07:41:14.286Z,15.39
2022-09-09T07:42:14.295Z,15.48
2022-09-09T07:43:17.253Z,15.50
2022-09-09T07:44:14.314Z,15.50
2022-09-09T07:45:14.189Z,15.52
2022-09-09T07:46:14.370Z,15.60
2022-09-09T07:47:14.210Z,15.65
2022-09-09T07:48:14.299Z,15.70
2022-09-09T07:49:14.129Z,15.78
2022-09-09T07:50:14.119Z,15.87
2022-09-09T07:51:14.131Z,15.91
2022-09-09T07:52:15.917Z,15.94
2022-09-09T07:53:14.140Z,16.00
2022-09-09T07:54:14.059Z,16.03
2022-09-09T07:55:14.131Z,16.09
2022-09-09T07:56:14.044Z,16.12
2022-09-09T07:57:14.134Z,16.17
2022-09-09T07:58:14.304Z,16.17
2022-09-09T07:59:14.065Z,16.10
2022-09-09T08:00:13.975Z,16.10
2022-09-09T08:01:13.975Z,16.10
2022-09-09T08:02:13.980Z,16.00
2022-09-09T08:03:14.160Z,15.94
2022-09-09T08:04:13.984Z,15.99
2022-09-09T08:05:14.236Z,16.03
2022-09-09T08:06:13.975Z,16.06
2022-09-09T08:07:13.877Z,16.10
2022-09-09T08:08:13.999Z,16.18
2022-09-09T08:09:14.129Z,16.26
2022-09-09T08:10:14.051Z,16.32
2022-09-09T08:11:13.909Z,16.37
2022-09-09T08:12:14.014Z,16.39
2022-09-09T08:13:18.238Z,16.39
2022-09-09T08:14:13.800Z,16.40
2022-09-09T08:15:13.809Z,16.39
2022-09-09T08:16:13.903Z,16.34
2022-09-09T08:17:13.809Z,16.32
2022-09-09T08:18:13.760Z,16.21
2022-09-09T08:19:13.814Z,16.13
2022-09-09T08:20:13.988Z,16.09
2022-09-09T08:21:13.825Z,16.08
2022-09-09T08:22:13.787Z,16.08
2022-09-09T08:23:13.814Z,16.08
2022-09-09T08:24:13.675Z,16.10
2022-09-09T08:25:13.645Z,16.10
2022-09-09T08:26:13.655Z,16.12
2022-09-09T08:27:13.819Z,16.21
2022-09-09T08:28:13.736Z,16.25
2022-09-09T08:29:13.817Z,16.32
2022-09-09T08:30:14.044Z,16.41
2022-09-09T08:31:13.692Z,16.50
2022-09-09T08:32:13.650Z,16.61
2022-09-09T08:33:13.619Z,16.76
2022-09-09T08:34:13.660Z,16.95
2022-09-09T08:35:13.821Z,17.07
2022-09-09T08:36:13.510Z,17.09
2022-09-09T08:37:13.488Z,17.13
2022-09-09T08:38:13.651Z,17.12
2022-09-09T08:39:13.569Z,17.04
2022-09-09T08:40:13.498Z,16.94
2022-09-09T08:41:13.488Z,16.82
2022-09-09T08:42:13.649Z,16.73
2022-09-09T08:43:13.489Z,16.64
2022-09-09T08:44:13.450Z,16.57
2022-09-09T08:45:13.493Z,16.47
2022-09-09T08:46:13.477Z,16.36
2022-09-09T08:47:13.355Z,16.26
2022-09-09T08:48:13.345Z,16.17
2022-09-09T08:49:13.326Z,16.09
2022-09-09T08:50:13.407Z,15.99
2022-09-09T08:51:13.498Z,15.96
2022-09-09T08:52:13.335Z,15.92
2022-09-09T08:53:13.265Z,15.87
2022-09-09T08:54:13.336Z,15.85
2022-09-09T08:55:13.504Z,15.87
2022-09-09T08:56:13.405Z,15.92
2022-09-09T08:57:13.221Z,15.96
2022-09-09T08:58:13.340Z,15.99
2022-09-09T08:59:13.200Z,16.02
2022-09-09T09:00:13.188Z,16.05
2022-09-09T09:01:13.264Z,16.08
2022-09-09T09:02:16.470Z,16.09
2022-09-09T09:03:13.169Z,16.08
2022-09-09T09:04:13.442Z,16.02
2022-09-09T09:05:13.170Z,15.98
2022-09-09T09:06:13.328Z,15.91
2022-09-09T09:07:13.182Z,15.92
2022-09-09T09:08:13.389Z,15.94
2022-09-09T09:09:13.064Z,15.96
2022-09-09T09:10:37.427Z,15.92
2022-09-09T09:11:13.175Z,15.94
2022-09-09T09:12:13.005Z,15.94
2022-09-09T09:13:13.005Z,15.92
2022-09-09T09:14:13.104Z,15.92
2022-09-09T09:15:13.175Z,15.94
2022-09-09T09:16:13.084Z,15.98
2022-09-09T09:17:12.955Z,15.98
2022-09-09T09:18:13.015Z,15.94
2022-09-09T09:19:12.925Z,15.99
2022-09-09T09:20:13.095Z,16.03
2022-09-09T09:21:12.914Z,16.08
2022-09-09T09:22:13.020Z,16.13
2022-09-09T09:23:12.899Z,16.22
2022-09-09T09:24:13.022Z,16.29
2022-09-09T09:25:12.860Z,16.32
2022-09-09T09:26:13.122Z,16.34
2022-09-09T09:27:12.869Z,16.40
2022-09-09T09:28:12.810Z,16.46
2022-09-09T09:29:12.859Z,16.47
2022-09-09T09:30:24.254Z,16.43
2022-09-09T09:31:12.903Z,16.51
2022-09-09T09:32:12.820Z,16.55
2022-09-09T09:33:12.864Z,16.59
2022-09-09T09:34:12.755Z,16.64
2022-09-09T09:35:12.884Z,16.68
2022-09-09T09:36:12.715Z,16.72
2022-09-09T09:37:12.754Z,16.73
2022-09-09T09:40:12.827Z,16.79
2022-09-09T09:41:12.639Z,16.73
2022-09-09T09:42:12.765Z,16.72
2022-09-09T09:43:12.615Z,16.68
2022-09-09T09:44:12.705Z,16.73
2022-09-09T09:45:12.865Z,16.68
2022-09-09T09:46:17.902Z,16.69
2022-09-09T09:47:12.570Z,16.66
2022-09-09T09:48:13.905Z,16.68
2022-09-09T09:49:12.550Z,16.73
2022-09-09T09:50:12.777Z,16.80
2022-09-09T09:51:12.539Z,16.87
2022-09-09T09:52:12.490Z,16.94
2022-09-09T09:53:12.620Z,16.99
2022-09-09T09:54:12.444Z,17.02
2022-09-09T09:55:12.541Z,17.10
2022-09-09T09:56:12.408Z,17.12
2022-09-09T09:57:12.544Z,17.10
2022-09-09T09:58:15.167Z,17.14
2022-09-09T09:59:17.999Z,17.14
2022-09-09T10:00:12.492Z,17.09
2022-09-09T10:01:12.568Z,17.12
2022-09-09T10:02:12.375Z,17.07
2022-09-09T10:03:12.336Z,16.97
2022-09-09T10:04:12.440Z,16.95
2022-09-09T10:05:12.615Z,16.89
2022-09-09T10:06:12.384Z,16.86
2022-09-09T10:07:12.535Z,16.87
2022-09-09T10:08:12.364Z,16.91
2022-09-09T10:09:12.270Z,16.95
2022-09-09T10:10:12.295Z,16.98
2022-09-09T10:11:12.299Z,17.04
2022-09-09T10:12:12.399Z,17.10
2022-09-09T10:13:12.211Z,17.12
2022-09-09T10:14:12.169Z,17.23
2022-09-09T10:15:12.219Z,17.34
2022-09-09T10:16:12.388Z,17.39
2022-09-09T10:17:12.309Z,17.41
2022-09-09T10:18:12.101Z,17.46
2022-09-09T10:19:12.210Z,17.47
2022-09-09T10:20:12.136Z,17.54
2022-09-09T10:21:12.234Z,17.66
2022-09-09T10:22:12.064Z,17.75
2022-09-09T10:23:12.324Z,17.82
2022-09-09T10:24:12.097Z,17.84
2022-09-09T10:25:12.035Z,17.86
2022-09-09T10:26:12.071Z,17.87
2022-09-09T10:27:12.015Z,17.84
2022-09-09T10:28:11.974Z,17.79
2022-09-09T10:29:12.024Z,17.69
2022-09-09T10:30:12.062Z,17.63
2022-09-09T10:31:11.990Z,17.54
2022-09-09T10:32:12.045Z,17.53
2022-09-09T10:33:11.934Z,17.54
2022-09-09T10:34:11.970Z,17.56
2022-09-09T10:35:11.912Z,17.60
2022-09-09T10:36:12.070Z,17.56
2022-09-09T10:37:11.898Z,17.56
2022-09-09T10:38:12.064Z,17.53
2022-09-09T10:39:11.889Z,17.52
2022-09-09T10:40:12.057Z,17.53
2022-09-09T10:41:11.902Z,17.53
2022-09-09T10:42:11.800Z,17.56
2022-09-09T10:43:11.890Z,17.59
2022-09-09T10:44:11.750Z,17.71
2022-09-09T10:45:11.910Z,17.82
2022-09-09T10:46:11.836Z,17.91
2022-09-09T10:47:11.725Z,18.09
2022-09-09T10:48:11.734Z,18.30
2022-09-09T10:49:11.695Z,18.78
2022-09-09T10:50:11.733Z,19.32
2022-09-09T10:51:11.726Z,19.47
2022-09-09T10:52:11.735Z,19.57
2022-09-09T10:53:11.645Z,19.62
2022-09-09T10:54:11.736Z,19.78
2022-09-09T10:55:11.898Z,20.04
2022-09-09T10:56:11.797Z,20.36
2022-09-09T10:57:11.660Z,20.52
2022-09-09T10:58:11.740Z,20.32
2022-09-09T10:59:11.589Z,20.46
2022-09-09T11:00:11.550Z,20.46
2022-09-09T11:01:11.655Z,20.27
2022-09-09T11:02:11.820Z,20.18
2022-09-09T11:03:11.570Z,20.18
2022-09-09T11:04:11.576Z,20.14
2022-09-09T11:05:11.614Z,20.11
2022-09-09T11:06:11.788Z,20.17
2022-09-09T11:07:12.235Z,20.27
2022-09-09T11:08:11.626Z,20.37
2022-09-09T11:09:11.445Z,20.44
2022-09-09T11:10:11.425Z,20.49
2022-09-09T11:11:11.396Z,20.56
2022-09-09T11:12:11.425Z,20.64
2022-09-09T11:13:11.385Z,20.66
2022-09-09T11:14:11.485Z,20.63
2022-09-09T11:15:11.576Z,20.50
2022-09-09T11:16:11.404Z,20.36
2022-09-09T11:17:11.584Z,20.24
2022-09-09T11:18:11.415Z,19.97
2022-09-09T11:19:11.311Z,19.79
2022-09-09T11:20:11.489Z,19.64
2022-09-09T11:21:11.279Z,19.56
2022-09-09T11:22:11.420Z,19.56
2022-09-09T11:23:11.298Z,19.53
2022-09-09T11:24:11.220Z,19.35
2022-09-09T11:25:11.273Z,19.38
2022-09-09T11:26:11.260Z,19.47
2022-09-09T11:27:11.289Z,19.60
2022-09-09T11:28:11.409Z,19.64
2022-09-09T11:29:11.248Z,19.66
2022-09-09T11:30:11.169Z,19.72
2022-09-09T11:31:11.363Z,19.77
2022-09-09T11:32:11.129Z,19.70
2022-09-09T11:33:11.099Z,19.77
2022-09-09T11:34:11.094Z,19.81
2022-09-09T11:35:11.256Z,19.70
2022-09-09T11:36:11.095Z,19.72
2022-09-09T11:37:11.332Z,19.75
2022-09-09T11:38:11.096Z,19.70
2022-09-09T11:39:11.014Z,19.70
2022-09-09T11:40:11.111Z,19.63
2022-09-09T11:41:11.269Z,19.55
2022-09-09T11:42:11.110Z,19.49
2022-09-09T11:43:11.330Z,19.41
2022-09-09T11:44:10.951Z,19.35
2022-09-09T11:45:10.973Z,19.29
2022-09-09T11:46:11.178Z,19.24
2022-09-09T11:47:10.909Z,19.22
2022-09-09T11:48:11.100Z,19.19
2022-09-09T11:49:11.010Z,19.07
2022-09-09T11:50:10.874Z,18.91
2022-09-09T11:51:16.062Z,18.78
2022-09-09T11:52:10.850Z,18.71
2022-09-09T11:53:10.956Z,18.74
2022-09-09T11:54:10.885Z,18.74
2022-09-09T11:55:10.968Z,18.73
2022-09-09T11:56:10.794Z,18.71
2022-09-09T11:57:10.955Z,18.64
2022-09-09T11:58:10.786Z,18.63
2022-09-09T11:59:10.935Z,18.67
2022-09-09T12:00:10.854Z,18.63
2022-09-09T12:01:10.731Z,18.60
2022-09-09T12:02:10.804Z,18.64
2022-09-09T12:03:10.924Z,18.71
2022-09-09T12:04:10.831Z,18.82
2022-09-09T12:05:11.066Z,18.88
2022-09-09T12:06:10.861Z,18.88
2022-09-09T12:07:10.640Z,18.88
2022-09-09T12:08:10.770Z,18.85
2022-09-09T12:09:10.610Z,18.88
2022-09-09T12:10:10.788Z,18.89
2022-09-09T12:11:10.613Z,18.94
2022-09-09T12:12:10.840Z,18.92
2022-09-09T12:13:10.619Z,18.96
2022-09-09T12:14:10.783Z,18.98
2022-09-09T12:15:10.676Z,19.04
2022-09-09T12:16:10.558Z,19.07
2022-09-09T12:17:10.504Z,19.07
2022-09-09T12:18:10.595Z,19.05
2022-09-09T12:19:10.620Z,19.07
2022-09-09T12:20:10.475Z,19.11
2022-09-09T12:21:10.454Z,19.17
2022-09-09T12:22:10.465Z,19.19
2022-09-09T12:23:10.695Z,19.24
2022-09-09T12:24:10.454Z,19.27
2022-09-09T12:25:10.395Z,19.32
2022-09-09T12:26:10.472Z,19.35
2022-09-09T12:27:10.629Z,19.37
2022-09-09T12:28:10.474Z,19.35
2022-09-09T12:29:10.424Z,19.29
2022-09-09T12:30:10.475Z,19.30
2022-09-09T12:31:10.941Z,19.29
2022-09-09T12:32:10.305Z,19.30
2022-09-09T12:33:10.305Z,19.26
2022-09-09T12:34:11.021Z,19.19
2022-09-09T12:35:10.291Z,19.12
2022-09-09T12:36:10.241Z,19.01
2022-09-09T12:37:10.292Z,18.96
2022-09-09T12:38:10.236Z,18.89
2022-09-09T12:39:10.306Z,18.85
2022-09-09T12:40:10.319Z,18.79
2022-09-09T12:41:10.297Z,18.74
2022-09-09T12:42:10.164Z,18.66
2022-09-09T12:43:10.294Z,18.61
2022-09-09T12:44:10.136Z,18.49
2022-09-09T12:45:10.375Z,18.46
2022-09-09T12:46:10.275Z,18.37
2022-09-09T12:47:10.094Z,18.31
2022-09-09T12:48:10.126Z,18.28
2022-09-09T12:49:10.079Z,18.18
2022-09-09T12:50:10.232Z,18.13
2022-09-09T12:51:10.310Z,18.11
2022-09-09T12:52:10.130Z,18.06
2022-09-09T12:53:10.020Z,18.05
2022-09-09T12:54:10.130Z,18.03
2022-09-09T12:55:10.021Z,18.00